createdAt,value
2018-11-12T00:51:46.492Z,4.47
2018-11-12T00:54:14.864Z,5.00
2018-11-12T00:56:43.260Z,4.75
2018-11-12T00:59:11.663Z,4.35
2018-11-12T01:01:40.120Z,5.20
2018-11-12T01:04:08.682Z,5.78
2018-11-12T01:58:21.028Z,6.78
2018-11-12T02:00:50.004Z,6.40
2018-11-12T02:03:18.417Z,7.15
2018-11-12T02:10:42.228Z,7.13
2018-11-12T02:13:10.686Z,6.90
2018-11-12T02:15:39.065Z,7.08
2018-11-12T02:18:08.512Z,7.22
2018-11-12T02:20:36.950Z,6.58
2018-11-12T02:23:05.252Z,7.67
2018-11-12T02:25:33.669Z,6.78
2018-11-12T02:28:02.146Z,6.70
2018-11-12T02:30:35.966Z,6.10
2018-11-12T03:10:07.476Z,6.08
2018-11-12T03:12:35.887Z,6.40
2018-11-12T03:15:04.797Z,6.40
2018-11-12T03:17:33.157Z,6.15
2018-11-12T03:20:01.521Z,6.62
2018-11-12T03:22:29.916Z,6.40
2018-11-12T03:24:58.320Z,6.00
2018-11-12T03:27:26.779Z,7.30
2018-11-12T03:29:55.135Z,5.85
2018-11-12T04:19:23.549Z,6.15
2018-11-12T06:43:23.328Z,7.40
2018-11-12T06:45:52.175Z,6.75
2018-11-12T06:48:20.587Z,8.43
2018-11-12T06:50:48.976Z,6.00
2018-11-12T07:05:36.769Z,6.50
2018-11-12T07:08:05.412Z,6.55
2018-11-12T07:10:33.845Z,7.33
2018-11-12T07:13:02.247Z,7.20
2018-11-12T07:15:30.700Z,7.37
2018-11-12T07:17:59.072Z,8.45
2018-11-12T07:20:28.327Z,8.70
2018-11-12T07:27:54.529Z,8.40
2018-11-12T07:30:24.165Z,7.90
2018-11-12T08:24:50.458Z,8.10
2018-11-12T08:34:42.324Z,10.10
2018-11-12T08:37:10.768Z,10.25
2018-11-12T08:39:39.300Z,8.90
2018-11-12T08:42:07.821Z,9.63
2018-11-12T08:44:36.264Z,9.83
2018-11-12T08:47:04.832Z,9.10
2018-11-12T08:49:34.293Z,9.50
2018-11-12T09:24:03.909Z,10.03
2018-11-12T09:26:32.296Z,9.53
2018-11-12T09:29:00.684Z,8.17
2018-11-12T09:41:21.338Z,13.00
2018-11-12T09:43:49.740Z,13.80
2018-11-12T09:46:18.137Z,7.53
2018-11-12T09:48:46.603Z,9.15
2018-11-12T09:51:15.068Z,9.80
2018-11-12T09:53:44.340Z,12.00
2018-11-12T09:56:12.703Z,11.85
2018-11-12T09:58:41.122Z,12.63
2018-11-12T10:01:09.640Z,8.83
2018-11-12T10:03:39.044Z,7.40
2018-11-12T10:06:08.302Z,9.70
2018-11-12T10:08:38.526Z,9.70
2018-11-12T10:11:06.977Z,9.33
2018-11-12T10:13:35.129Z,9.30
